Time,TemperatureF,DewpointF,PressureIn,WindDirection,WindDirectionDegrees,WindSpeedMPH,WindSpeedGustMPH,Humidity,HourlyPrecipIn,Conditions,Clouds,dailyrainin,SolarRadiationWatts/m^2,SoftwareType,DateUTC
2013-03-10 00:00:00,49.7,48.6,29.67,North,360,9.0,15.0,96,0.00,,,0.00,0,Wunderground v.1.15,2013-03-10 06:00:00,
2013-03-10 00:05:00,49.6,48.5,29.66,NNE,23,9.0,16.0,96,0.00,,,0.00,0,Wunderground v.1.15,2013-03-10 06:05:00,
2013-03-10 00:10:00,49.8,48.7,29.68,NNE,25,8.0,8.0,96,0.00,,,0.00,0,Wunderground v.1.15,2013-03-10 06:10:00,
2013-03-10 00:20:00,51.3,50.5,29.67,NNE,22,6.0,11.0,97,0.00,,,0.00,0,Wunderground v.1.15,2013-03-10 06:20:00,
2013-03-10 00:25:00,51.4,50.6,29.62,NNE,21,8.0,11.0,97,0.00,,,0.00,0,Wunderground v.1.15,2013-03-10 06:25:00,
2013-03-10 00:30:00,51.4,50.3,29.62,NNE,20,10.0,17.0,96,0.00,,,0.00,0,Wunderground v.1.15,2013-03-10 06:30:00,
2013-03-10 00:40:00,51.8,51.0,29.64,NNE,24,9.0,9.0,97,0.00,,,0.00,0,Wunderground v.1.15,2013-03-10 06:40:00,
2013-03-10 00:45:00,51.7,50.6,29.64,NNE,24,7.0,13.0,96,0.00,,,0.00,0,Wunderground v.1.15,2013-03-10 06:45:00,
2013-03-10 00:55:00,51.6,50.5,29.64,NNE,26,9.0,9.0,96,0.00,,,0.00,0,Wunderground v.1.15,2013-03-10 06:55:00,
2013-03-10 01:00:00,51.2,50.1,29.64,NNE,24,7.0,13.0,96,0.00,,,0.00,0,Wunderground v.1.15,2013-03-10 07:00:00,
2013-03-10 01:05:00,50.8,49.7,29.64,NNE,25,4.0,13.0,96,0.00,,,0.00,0,Wunderground v.1.15,2013-03-10 07:05:00,
2013-03-10 01:15:00,50.5,49.4,29.64,NNE,27,2.0,4.0,96,0.00,,,0.00,0,Wunderground v.1.15,2013-03-10 07:15:00,
2013-03-10 01:25:00,50.8,49.7,29.66,NNE,27,4.0,6.0,96,0.00,,,0.00,0,Wunderground v.1.15,2013-03-10 07:25:00,
2013-03-10 01:30:00,50.7,49.6,29.67,NNE,28,2.0,2.0,96,0.00,,,0.00,0,Wunderground v.1.15,2013-03-10 07:30:00,
2013-03-10 01:35:00,50.4,49.3,29.68,NNE,28,0.0,4.0,96,0.00,,,0.00,0,Wunderground v.1.15,2013-03-10 07:35:00,
2013-03-10 01:45:00,49.8,48.7,29.67,NNE,28,0.0,0.0,96,0.00,,,0.00,0,Wunderground v.1.15,2013-03-10 07:45:00,
2013-03-10 01:50:00,49.5,48.4,29.67,NNE,28,0.0,0.0,96,0.00,,,0.00,0,Wunderground v.1.15,2013-03-10 07:50:00,
2013-03-10 03:00:00,49.4,48.3,29.66,NNE,27,0.0,0.0,96,0.00,,,0.00,0,Wunderground v.1.15,2013-03-10 08:00:00,
2013-03-10 03:10:00,49.5,48.4,29.66,NNE,28,0.0,0.0,96,0.00,,,0.00,0,Wunderground v.1.15,2013-03-10 08:10:00,
2013-03-10 03:15:00,49.2,48.1,29.66,NNE,28,0.0,0.0,96,0.00,,,0.00,0,Wunderground v.1.15,2013-03-10 08:15:00,
2013-03-10 03:20:00,49.1,48.0,29.66,NNE,28,0.0,0.0,96,0.00,,,0.00,0,Wunderground v.1.15,2013-03-10 08:20:00,
2013-03-10 03:30:00,49.0,47.9,29.66,NNE,28,0.0,0.0,96,0.00,,,0.00,0,Wunderground v.1.15,2013-03-10 08:30:00,
2013-03-10 03:35:00,49.0,47.9,29.65,NNE,28,0.0,0.0,96,0.00,,,0.00,0,Wunderground v.1.15,2013-03-10 08:35:00,
2013-03-10 03:45:00,49.0,47.9,29.64,NNE,28,0.0,0.0,96,0.00,,,0.00,0,Wunderground v.1.15,2013-03-10 08:45:00,
2013-03-10 03:50:00,49.1,48.0,29.65,North,360,0.0,0.0,96,0.00,,,0.00,0,Wunderground v.1.15,2013-03-10 08:50:00,
2013-03-10 03:55:00,49.4,48.3,29.65,NNE,28,0.0,0.0,96,0.00,,,0.00,0,Wunderground v.1.15,2013-03-10 08:55:00,
2013-03-10 04:00:00,49.4,48.6,29.65,NNE,28,0.0,0.0,97,0.00,,,0.00,0,Wunderground v.1.15,2013-03-10 09:00:00,
2013-03-10 04:10:00,49.5,48.7,29.66,NNE,28,0.0,0.0,97,0.00,,,0.00,0,Wunderground v.1.15,2013-03-10 09:10:00,
2013-03-10 04:15:00,49.4,48.3,29.66,NNE,28,0.0,0.0,96,0.00,,,0.00,0,Wunderground v.1.15,2013-03-10 09:15:00,
2013-03-10 04:20:00,49.3,48.2,29.64,NNE,28,0.0,0.0,96,0.00,,,0.00,0,Wunderground v.1.15,2013-03-10 09:20:00,
2013-03-10 04:30:00,49.3,48.2,29.64,NNE,28,0.0,0.0,96,0.00,,,0.00,0,Wunderground v.1.15,2013-03-10 09:30:00,
2013-03-10 04:35:00,49.4,48.6,29.63,NNE,28,0.0,1.0,97,0.00,,,0.00,0,Wunderground v.1.15,2013-03-10 09:35:00,
2013-03-10 04:40:00,49.5,48.7,29.62,NNE,27,1.0,3.0,97,0.00,,,0.00,0,Wunderground v.1.15,2013-03-10 09:40:00,
2013-03-10 04:50:00,50.1,49.3,29.61,NNE,26,2.0,4.0,97,0.00,,,0.00,0,Wunderground v.1.15,2013-03-10 09:50:00,
2013-03-10 04:55:00,50.2,49.4,29.62,NNE,26,3.0,7.0,97,0.00,,,0.00,0,Wunderground v.1.15,2013-03-10 09:55:00,
2013-03-10 05:00:00,50.2,49.4,29.62,North,360,3.0,5.0,97,0.00,,,0.00,0,Wunderground v.1.15,2013-03-10 10:00:00,
2013-03-10 05:05:00,50.3,49.5,29.64,NNE,26,3.0,5.0,97,0.00,,,0.00,0,Wunderground v.1.15,2013-03-10 10:05:00,
2013-03-10 05:15:00,50.4,49.6,29.62,NNE,26,4.0,7.0,97,0.00,,,0.00,0,Wunderground v.1.15,2013-03-10 10:15:00,
2013-03-10 05:25:00,50.5,49.7,29.63,NNE,26,3.0,6.0,97,0.00,,,0.00,0,Wunderground v.1.15,2013-03-10 10:25:00,
2013-03-10 05:30:00,50.9,50.1,29.66,NNE,26,3.0,5.0,97,0.00,,,0.00,0,Wunderground v.1.15,2013-03-10 10:30:00,
2013-03-10 05:40:00,51.4,50.6,29.67,NNE,28,4.0,6.0,97,0.00,,,0.00,0,Wunderground v.1.15,2013-03-10 10:40:00,
2013-03-10 05:45:00,51.5,50.7,29.66,NNE,28,4.0,6.0,97,0.00,,,0.00,0,Wunderground v.1.15,2013-03-10 10:45:00,
2013-03-10 05:55:00,51.2,50.4,29.67,NNE,28,4.0,7.0,97,0.00,,,0.00,0,Wunderground v.1.15,2013-03-10 10:55:00,
2013-03-10 06:00:00,51.2,50.4,29.67,NNE,28,5.0,7.0,97,0.00,,,0.00,0,Wunderground v.1.15,2013-03-10 11:00:00,
2013-03-10 06:10:00,51.5,50.7,29.68,NNE,28,5.0,7.0,97,0.00,,,0.00,0,Wunderground v.1.15,2013-03-10 11:10:00,
2013-03-10 06:15:00,51.8,51.0,29.68,NNE,30,5.0,12.0,97,0.00,,,0.00,0,Wunderground v.1.15,2013-03-10 11:15:00,
2013-03-10 06:20:00,52.2,51.4,29.67,NNE,30,6.0,11.0,97,0.00,,,0.00,0,Wunderground v.1.15,2013-03-10 11:20:00,
2013-03-10 06:30:00,52.3,51.5,29.68,North,360,7.0,7.0,97,0.00,,,0.00,0,Wunderground v.1.15,2013-03-10 11:30:00,
2013-03-10 06:35:00,52.5,51.1,29.68,North,360,8.0,8.0,95,0.00,,,0.00,0,Wunderground v.1.15,2013-03-10 11:35:00,
2013-03-10 06:45:00,52.8,49.6,29.68,North,360,8.0,18.0,89,0.00,,,0.00,0,Wunderground v.1.15,2013-03-10 11:45:00,
2013-03-10 06:50:00,53.7,48.7,29.67,NNE,29,7.0,16.0,83,0.00,,,0.00,0,Wunderground v.1.15,2013-03-10 11:50:00,
2013-03-10 06:55:00,54.4,47.0,29.66,NNE,30,7.0,16.0,76,0.00,,,0.00,0,Wunderground v.1.15,2013-03-10 11:55:00,
2013-03-10 07:05:00,54.7,45.8,29.66,NNE,28,6.0,13.0,72,0.00,,,0.00,0,Wunderground v.1.15,2013-03-10 12:05:00,
2013-03-10 07:15:00,54.2,46.4,29.67,NNE,27,6.0,13.0,75,0.00,,,0.00,0,Wunderground v.1.15,2013-03-10 12:15:00,
2013-03-10 07:20:00,53.7,47.3,29.68,NNE,28,7.0,11.0,79,0.00,,,0.00,0,Wunderground v.1.15,2013-03-10 12:20:00,
2013-03-10 07:25:00,53.3,47.3,29.69,NNE,28,8.0,12.0,80,0.00,,,0.00,0,Wunderground v.1.15,2013-03-10 12:25:00,
2013-03-10 07:35:00,53.0,47.0,29.71,NNE,28,10.0,17.0,80,0.00,,,0.00,0,Wunderground v.1.15,2013-03-10 12:35:00,
2013-03-10 07:40:00,52.8,46.8,29.72,NNE,30,10.0,10.0,80,0.00,,,0.00,0,Wunderground v.1.15,2013-03-10 12:40:00,
2013-03-10 07:50:00,52.1,46.4,29.72,NNE,28,7.0,7.0,81,0.00,,,0.00,0,Wunderground v.1.15,2013-03-10 12:50:00,
2013-03-10 08:00:00,51.6,46.3,29.73,NNE,28,7.0,7.0,82,0.00,,,0.00,0,Wunderground v.1.15,2013-03-10 13:00:00,
2013-03-10 08:05:00,51.3,46.3,29.72,NNE,28,7.0,12.0,83,0.00,,,0.00,0,Wunderground v.1.15,2013-03-10 13:05:00,
2013-03-10 08:10:00,51.0,46.0,29.71,NNE,28,7.0,7.0,83,0.00,,,0.00,7,Wunderground v.1.15,2013-03-10 13:10:00,
2013-03-10 08:20:00,50.6,46.3,29.70,NNE,27,1.0,1.0,85,0.00,,,0.00,9,Wunderground v.1.15,2013-03-10 13:20:00,
2013-03-10 08:30:00,50.2,45.9,29.71,NNE,26,5.0,5.0,85,0.00,,,0.00,11,Wunderground v.1.15,2013-03-10 13:30:00,
2013-03-10 08:35:00,50.1,46.1,29.70,NNE,26,5.0,10.0,86,0.00,,,0.00,9,Wunderground v.1.15,2013-03-10 13:35:00,
2013-03-10 08:40:00,50.1,46.1,29.70,NNE,24,5.0,11.0,86,0.00,,,0.00,11,Wunderground v.1.15,2013-03-10 13:40:00,
2013-03-10 08:50:00,49.9,45.9,29.69,NNE,24,5.0,11.0,86,0.00,,,0.00,18,Wunderground v.1.15,2013-03-10 13:50:00,
2013-03-10 09:00:00,49.7,46.0,29.69,North,360,4.0,10.0,87,0.00,,,0.00,18,Wunderground v.1.15,2013-03-10 14:00:00,
2013-03-10 09:05:00,49.6,46.2,29.69,NNE,26,4.0,11.0,88,0.00,,,0.00,19,Wunderground v.1.15,2013-03-10 14:05:00,
2013-03-10 09:15:00,49.5,46.4,29.70,NNE,27,3.0,11.0,89,0.00,,,0.00,19,Wunderground v.1.15,2013-03-10 14:15:00,
2013-03-10 09:25:00,49.4,46.6,29.71,NNE,26,4.0,7.0,90,0.00,,,0.00,14,Wunderground v.1.15,2013-03-10 14:25:00,
2013-03-10 09:30:00,49.3,46.5,29.72,NNE,27,3.0,7.0,90,0.00,,,0.00,16,Wunderground v.1.15,2013-03-10 14:30:00,
2013-03-10 09:35:00,49.3,46.5,29.72,NNE,28,5.0,7.0,90,0.00,,,0.00,12,Wunderground v.1.15,2013-03-10 14:35:00,
2013-03-10 09:45:00,49.2,46.7,29.72,NNE,25,3.0,7.0,91,0.00,,,0.00,12,Wunderground v.1.15,2013-03-10 14:45:00,
2013-03-10 09:55:00,49.1,46.9,29.72,NNE,25,4.0,11.0,92,0.00,,,0.00,21,Wunderground v.1.15,2013-03-10 14:55:00,
2013-03-10 10:00:00,49.1,46.9,29.72,NNE,26,5.0,13.0,92,0.00,,,0.00,26,Wunderground v.1.15,2013-03-10 15:00:00,
2013-03-10 10:05:00,49.1,46.9,29.71,NNE,27,5.0,13.0,92,0.00,,,0.00,35,Wunderground v.1.15,2013-03-10 15:05:00,
2013-03-10 10:15:00,49.1,46.9,29.68,NNE,25,5.0,12.0,92,0.00,,,0.00,33,Wunderground v.1.15,2013-03-10 15:15:00,
2013-03-10 10:20:00,49.1,47.2,29.67,NNE,23,6.0,6.0,93,0.00,,,0.00,51,Wunderground v.1.15,2013-03-10 15:20:00,
2013-03-10 10:30:00,49.1,47.2,29.68,NNE,23,4.0,12.0,93,0.00,,,0.00,46,Wunderground v.1.15,2013-03-10 15:30:00,
2013-03-10 10:40:00,49.1,47.2,29.68,NNE,26,4.0,4.0,93,0.00,,,0.00,53,Wunderground v.1.15,2013-03-10 15:40:00,
2013-03-10 10:45:00,49.2,47.5,29.68,NNE,21,4.0,11.0,94,0.00,,,0.00,65,Wunderground v.1.15,2013-03-10 15:45:00,
2013-03-10 10:50:00,49.2,47.5,29.69,NNE,22,2.0,2.0,94,0.00,,,0.00,72,Wunderground v.1.15,2013-03-10 15:50:00,
2013-03-10 11:00:00,49.3,47.6,29.69,NNE,24,1.0,1.0,94,0.00,,,0.00,77,Wunderground v.1.15,2013-03-10 16:00:00,
2013-03-10 11:05:00,49.4,47.7,29.68,NNE,22,3.0,3.0,94,0.00,,,0.00,77,Wunderground v.1.15,2013-03-10 16:05:00,
2013-03-10 11:15:00,49.4,47.7,29.66,NNE,19,2.0,10.0,94,0.00,,,0.00,132,Wunderground v.1.15,2013-03-10 16:15:00,
2013-03-10 11:20:00,49.6,47.9,29.68,NNE,21,2.0,9.0,94,0.00,,,0.00,93,Wunderground v.1.15,2013-03-10 16:20:00,
2013-03-10 11:25:00,49.6,47.9,29.69,NNE,28,5.0,11.0,94,0.00,,,0.00,47,Wunderground v.1.15,2013-03-10 16:25:00,
2013-03-10 11:35:00,49.5,47.8,29.70,NNE,26,6.0,13.0,94,0.00,,,0.00,32,Wunderground v.1.15,2013-03-10 16:35:00,
2013-03-10 11:45:00,49.5,47.8,29.70,NNE,28,4.0,11.0,94,0.00,,,0.00,49,Wunderground v.1.15,2013-03-10 16:45:00,
2013-03-10 11:50:00,49.5,47.8,29.69,NNE,22,3.0,3.0,94,0.00,,,0.00,69,Wunderground v.1.15,2013-03-10 16:50:00,
2013-03-10 12:00:00,49.4,47.7,29.68,NNE,22,4.0,10.0,94,0.00,,,0.00,83,Wunderground v.1.15,2013-03-10 17:00:00,
2013-03-10 12:05:00,49.4,47.7,29.68,NNE,24,5.0,12.0,94,0.00,,,0.00,67,Wunderground v.1.15,2013-03-10 17:05:00,
2013-03-10 12:10:00,49.3,47.6,29.69,NNE,24,6.0,6.0,94,0.00,,,0.00,93,Wunderground v.1.15,2013-03-10 17:10:00,
2013-03-10 12:20:00,49.4,47.7,29.68,NNE,22,4.0,12.0,94,0.00,,,0.00,114,Wunderground v.1.15,2013-03-10 17:20:00,
2013-03-10 12:25:00,49.5,47.8,29.67,NNE,23,4.0,12.0,94,0.00,,,0.00,172,Wunderground v.1.15,2013-03-10 17:25:00,
2013-03-10 12:30:00,49.6,47.9,29.65,NNE,20,4.0,4.0,94,0.00,,,0.00,225,Wunderground v.1.15,2013-03-10 17:30:00,
2013-03-10 12:40:00,50.1,48.4,29.65,North,5,4.0,4.0,94,0.00,,,0.00,239,Wunderground v.1.15,2013-03-10 17:40:00,
2013-03-10 12:45:00,50.2,48.3,29.65,NNE,28,5.0,5.0,93,0.00,,,0.00,190,Wunderground v.1.15,2013-03-10 17:45:00,
2013-03-10 12:55:00,50.4,48.5,29.67,NNE,24,7.0,10.0,93,0.00,,,0.00,107,Wunderground v.1.15,2013-03-10 17:55:00,
2013-03-10 13:10:00,50.4,48.5,29.67,NNE,24,3.0,12.0,93,0.00,,,0.00,98,Wunderground v.1.15,2013-03-10 18:10:00,
2013-03-10 13:20:00,50.4,48.2,29.67,NNE,25,6.0,11.0,92,0.00,,,0.00,90,Wunderground v.1.15,2013-03-10 18:20:00,
2013-03-10 13:25:00,50.4,48.2,29.67,NNE,24,6.0,12.0,92,0.00,,,0.00,132,Wunderground v.1.15,2013-03-10 18:25:00,
2013-03-10 13:35:00,50.3,48.4,29.66,NNE,22,7.0,13.0,93,0.00,,,0.00,102,Wunderground v.1.15,2013-03-10 18:35:00,
2013-03-10 13:45:00,50.1,48.2,29.66,NNE,23,6.0,10.0,93,0.00,,,0.00,146,Wunderground v.1.15,2013-03-10 18:45:00,
2013-03-10 13:55:00,50.0,48.1,29.65,NNE,23,6.0,12.0,93,0.00,,,0.00,123,Wunderground v.1.15,2013-03-10 18:55:00,
2013-03-10 14:00:00,50.0,48.1,29.64,NNE,24,4.0,4.0,93,0.00,,,0.00,120,Wunderground v.1.15,2013-03-10 19:00:00,
2013-03-10 14:10:00,49.8,48.1,29.64,NNE,24,3.0,11.0,94,0.00,,,0.00,116,Wunderground v.1.15,2013-03-10 19:10:00,
2013-03-10 14:20:00,49.8,48.1,29.64,NNE,21,1.0,1.0,94,0.00,,,0.00,105,Wunderground v.1.15,2013-03-10 19:20:00,
2013-03-10 14:25:00,49.8,48.1,29.65,North,360,1.0,7.0,94,0.00,,,0.00,37,Wunderground v.1.15,2013-03-10 19:25:00,
2013-03-10 14:35:00,43.5,41.0,29.66,North,360,10.0,10.0,91,0.00,,,0.00,81,Wunderground v.1.15,2013-03-10 19:35:00,
2013-03-10 14:40:00,42.6,40.4,29.66,North,360,9.0,17.0,92,0.00,,,0.00,77,Wunderground v.1.15,2013-03-10 19:40:00,
2013-03-10 14:50:00,41.8,39.9,29.66,North,360,7.0,15.0,93,0.00,,,0.00,42,Wunderground v.1.15,2013-03-10 19:50:00,
2013-03-10 15:00:00,41.6,40.0,29.67,North,360,7.0,17.0,94,0.00,,,0.00,171,Wunderground v.1.15,2013-03-10 20:00:00,
2013-03-10 15:05:00,42.0,40.7,29.67,North,360,8.0,17.0,95,0.00,,,0.00,246,Wunderground v.1.15,2013-03-10 20:05:00,
2013-03-10 15:15:00,42.0,40.4,29.67,North,360,11.0,11.0,94,0.00,,,0.00,171,Wunderground v.1.15,2013-03-10 20:15:00,
2013-03-10 15:20:00,42.0,40.4,29.67,North,360,10.0,18.0,94,0.00,,,0.00,237,Wunderground v.1.15,2013-03-10 20:20:00,
2013-03-10 15:30:00,42.2,40.6,29.67,North,360,8.0,18.0,94,0.00,,,0.00,418,Wunderground v.1.15,2013-03-10 20:30:00,
2013-03-10 15:35:00,42.4,40.8,29.68,North,360,8.0,18.0,94,0.00,,,0.00,163,Wunderground v.1.15,2013-03-10 20:35:00,
2013-03-10 15:50:00,41.8,39.9,29.68,North,360,9.0,9.0,93,0.00,,,0.00,192,Wunderground v.1.15,2013-03-10 20:50:00,
2013-03-10 16:00:00,41.7,39.8,29.69,North,360,7.0,15.0,93,0.00,,,0.00,97,Wunderground v.1.15,2013-03-10 21:00:00,
2013-03-10 16:10:00,41.0,39.1,29.69,North,360,10.0,17.0,93,0.00,,,0.00,95,Wunderground v.1.15,2013-03-10 21:10:00,
2013-03-10 16:15:00,40.8,38.9,29.69,North,360,10.0,18.0,93,0.00,,,0.00,72,Wunderground v.1.15,2013-03-10 21:15:00,
2013-03-10 16:20:00,40.7,38.8,29.69,North,360,10.0,17.0,93,0.00,,,0.00,67,Wunderground v.1.15,2013-03-10 21:20:00,
2013-03-10 16:25:00,40.5,38.6,29.70,North,360,9.0,18.0,93,0.00,,,0.00,60,Wunderground v.1.15,2013-03-10 21:25:00,
2013-03-10 16:35:00,40.3,38.4,29.71,North,360,8.0,16.0,93,0.00,,,0.00,46,Wunderground v.1.15,2013-03-10 21:35:00,
2013-03-10 16:40:00,40.1,38.2,29.71,North,360,8.0,15.0,93,0.00,,,0.00,42,Wunderground v.1.15,2013-03-10 21:40:00,
2013-03-10 16:50:00,39.6,38.0,29.72,North,360,10.0,10.0,94,0.00,,,0.00,44,Wunderground v.1.15,2013-03-10 21:50:00,
2013-03-10 16:55:00,39.4,37.8,29.72,North,360,12.0,12.0,94,0.00,,,0.00,40,Wunderground v.1.15,2013-03-10 21:55:00,
2013-03-10 17:05:00,39.2,37.6,29.73,North,360,11.0,24.0,94,0.00,,,0.00,35,Wunderground v.1.15,2013-03-10 22:05:00,
2013-03-10 17:15:00,39.1,37.5,29.74,North,360,9.0,22.0,94,0.00,,,0.00,26,Wunderground v.1.15,2013-03-10 22:15:00,
2013-03-10 17:20:00,39.0,37.4,29.73,North,360,9.0,16.0,94,0.00,,,0.00,30,Wunderground v.1.15,2013-03-10 22:20:00,
2013-03-10 17:35:00,38.5,36.9,29.74,North,360,11.0,22.0,94,0.00,,,0.00,30,Wunderground v.1.15,2013-03-10 22:35:00,
2013-03-10 17:40:00,38.4,36.8,29.74,North,360,11.0,20.0,94,0.00,,,0.00,30,Wunderground v.1.15,2013-03-10 22:40:00,
2013-03-10 17:45:00,38.2,36.6,29.74,North,360,11.0,24.0,94,0.00,,,0.00,30,Wunderground v.1.15,2013-03-10 22:45:00,
2013-03-10 17:50:00,38.0,36.4,29.74,North,360,11.0,24.0,94,0.00,,,0.00,23,Wunderground v.1.15,2013-03-10 22:50:00,
2013-03-10 18:00:00,37.9,36.3,29.74,North,360,11.0,11.0,94,0.00,,,0.00,23,Wunderground v.1.15,2013-03-10 23:00:00,
2013-03-10 18:05:00,37.8,36.2,29.75,North,360,12.0,12.0,94,0.00,,,0.00,23,Wunderground v.1.15,2013-03-10 23:05:00,
2013-03-10 18:15:00,37.5,35.7,29.75,North,360,14.0,15.0,93,0.00,,,0.00,14,Wunderground v.1.15,2013-03-10 23:15:00,
2013-03-10 18:20:00,37.5,35.7,29.75,North,360,13.0,13.0,93,0.00,,,0.00,12,Wunderground v.1.15,2013-03-10 23:20:00,
2013-03-10 18:25:00,37.5,35.7,29.76,North,360,11.0,23.0,93,0.00,,,0.00,7,Wunderground v.1.15,2013-03-10 23:25:00,
2013-03-10 18:35:00,36.9,35.1,29.77,North,360,10.0,21.0,93,0.00,,,0.00,7,Wunderground v.1.15,2013-03-10 23:35:00,
2013-03-10 18:45:00,36.0,33.9,29.78,North,360,13.0,22.0,92,0.00,,,0.00,5,Wunderground v.1.15,2013-03-10 23:45:00,
2013-03-10 18:50:00,35.5,33.7,29.78,North,360,13.0,13.0,93,0.00,,,0.00,0,Wunderground v.1.15,2013-03-10 23:50:00,
2013-03-10 18:55:00,35.2,33.1,29.78,North,360,12.0,24.0,92,0.00,,,0.00,0,Wunderground v.1.15,2013-03-10 23:55:00,
2013-03-10 19:05:00,35.1,33.0,29.79,North,360,9.0,18.0,92,0.00,,,0.00,0,Wunderground v.1.15,2013-03-11 00:05:00,
2013-03-10 19:10:00,34.8,32.7,29.79,North,360,10.0,10.0,92,0.00,,,0.00,0,Wunderground v.1.15,2013-03-11 00:10:00,
2013-03-10 19:15:00,34.6,32.2,29.80,North,360,12.0,15.0,91,0.00,,,0.00,0,Wunderground v.1.15,2013-03-11 00:15:00,
2013-03-10 19:25:00,34.5,32.1,29.81,North,360,11.0,18.0,91,0.00,,,0.00,0,Wunderground v.1.15,2013-03-11 00:25:00,
2013-03-10 19:30:00,34.3,31.9,29.81,North,360,12.0,12.0,91,0.00,,,0.00,0,Wunderground v.1.15,2013-03-11 00:30:00,
2013-03-10 19:40:00,34.2,31.8,29.82,North,360,10.0,24.0,91,0.00,,,0.00,0,Wunderground v.1.15,2013-03-11 00:40:00,
2013-03-10 19:45:00,34.1,31.5,29.82,North,360,10.0,24.0,90,0.00,,,0.00,0,Wunderground v.1.15,2013-03-11 00:45:00,
2013-03-10 19:55:00,33.9,31.3,29.83,North,360,10.0,25.0,90,0.00,,,0.00,0,Wunderground v.1.15,2013-03-11 00:55:00,
2013-03-10 20:00:00,33.9,31.3,29.83,North,360,10.0,18.0,90,0.00,,,0.00,0,Wunderground v.1.15,2013-03-11 01:00:00,
2013-03-10 20:10:00,33.6,31.0,29.82,North,360,11.0,22.0,90,0.00,,,0.00,0,Wunderground v.1.15,2013-03-11 01:10:00,
2013-03-10 20:20:00,33.5,30.9,29.83,North,360,10.0,10.0,90,0.00,,,0.00,0,Wunderground v.1.15,2013-03-11 01:20:00,
2013-03-10 20:30:00,33.3,30.7,29.83,North,360,10.0,16.0,90,0.00,,,0.00,0,Wunderground v.1.15,2013-03-11 01:30:00,
2013-03-10 20:40:00,33.3,30.7,29.83,North,360,9.0,9.0,90,0.00,,,0.00,0,Wunderground v.1.15,2013-03-11 01:40:00,
2013-03-10 20:45:00,33.3,30.4,29.83,North,360,8.0,13.0,89,0.00,,,0.00,0,Wunderground v.1.15,2013-03-11 01:45:00,
2013-03-10 20:50:00,33.2,30.3,29.84,North,360,10.0,10.0,89,0.00,,,0.00,0,Wunderground v.1.15,2013-03-11 01:50:00,
2013-03-10 21:00:00,33.2,30.3,29.84,North,360,9.0,9.0,89,0.00,,,0.00,0,Wunderground v.1.15,2013-03-11 02:00:00,
2013-03-10 21:05:00,33.1,30.2,29.84,North,360,9.0,15.0,89,0.00,,,0.00,0,Wunderground v.1.15,2013-03-11 02:05:00,
2013-03-10 21:10:00,33.0,30.1,29.84,North,360,12.0,22.0,89,0.00,,,0.00,0,Wunderground v.1.15,2013-03-11 02:10:00,
2013-03-10 21:20:00,32.9,29.7,29.85,North,360,10.0,10.0,88,0.00,,,0.00,0,Wunderground v.1.15,2013-03-11 02:20:00,
2013-03-10 21:30:00,32.8,29.6,29.85,North,360,12.0,12.0,88,0.00,,,0.00,0,Wunderground v.1.15,2013-03-11 02:30:00,
2013-03-10 21:35:00,32.8,29.6,29.85,North,360,11.0,13.0,88,0.00,,,0.00,0,Wunderground v.1.15,2013-03-11 02:35:00,
2013-03-10 21:45:00,32.6,29.4,29.86,North,360,9.0,21.0,88,0.00,,,0.00,0,Wunderground v.1.15,2013-03-11 02:45:00,
2013-03-10 21:50:00,32.5,29.3,29.86,North,360,10.0,10.0,88,0.00,,,0.00,0,Wunderground v.1.15,2013-03-11 02:50:00,
2013-03-10 22:00:00,32.4,29.0,29.86,North,360,11.0,11.0,87,0.00,,,0.00,0,Wunderground v.1.15,2013-03-11 03:00:00,
2013-03-10 22:05:00,32.5,29.1,29.87,North,360,11.0,15.0,87,0.00,,,0.00,0,Wunderground v.1.15,2013-03-11 03:05:00,
2013-03-10 22:10:00,32.4,29.0,29.86,North,360,10.0,17.0,87,0.00,,,0.00,0,Wunderground v.1.15,2013-03-11 03:10:00,
2013-03-10 22:20:00,32.3,28.9,29.87,North,360,11.0,22.0,87,0.00,,,0.00,0,Wunderground v.1.15,2013-03-11 03:20:00,
2013-03-10 22:25:00,32.4,29.0,29.87,North,360,9.0,22.0,87,0.00,,,0.00,0,Wunderground v.1.15,2013-03-11 03:25:00,
2013-03-10 22:30:00,32.3,28.9,29.87,North,360,10.0,17.0,87,0.00,,,0.00,0,Wunderground v.1.15,2013-03-11 03:30:00,
2013-03-10 22:40:00,32.2,28.8,29.87,North,360,10.0,19.0,87,0.00,,,0.00,0,Wunderground v.1.15,2013-03-11 03:40:00,
2013-03-10 22:45:00,32.2,28.8,29.87,North,360,9.0,21.0,87,0.00,,,0.00,0,Wunderground v.1.15,2013-03-11 03:45:00,
2013-03-10 22:55:00,32.2,28.8,29.87,North,360,9.0,17.0,87,0.00,,,0.00,0,Wunderground v.1.15,2013-03-11 03:55:00,
2013-03-10 23:00:00,32.2,28.5,29.88,North,360,10.0,10.0,86,0.00,,,0.00,0,Wunderground v.1.15,2013-03-11 04:00:00,
2013-03-10 23:10:00,32.2,28.5,29.88,North,360,9.0,17.0,86,0.00,,,0.00,0,Wunderground v.1.15,2013-03-11 04:10:00,
2013-03-10 23:15:00,32.2,28.5,29.88,North,360,10.0,21.0,86,0.00,,,0.00,0,Wunderground v.1.15,2013-03-11 04:15:00,
2013-03-10 23:25:00,32.2,28.5,29.88,North,360,10.0,22.0,86,0.00,,,0.00,0,Wunderground v.1.15,2013-03-11 04:25:00,
2013-03-10 23:30:00,32.2,28.5,29.88,North,360,9.0,9.0,86,0.00,,,0.00,0,Wunderground v.1.15,2013-03-11 04:30:00,
2013-03-10 23:40:00,32.1,28.4,29.88,North,360,9.0,18.0,86,0.00,,,0.00,0,Wunderground v.1.15,2013-03-11 04:40:00,
2013-03-10 23:45:00,32.1,28.4,29.89,North,360,8.0,18.0,86,0.00,,,0.00,0,Wunderground v.1.15,2013-03-11 04:45:00,
2013-03-10 23:55:00,32.0,28.3,29.88,North,360,9.0,18.0,86,0.00,,,0.00,0,Wunderground v.1.15,2013-03-11 04:55:00,